sensor_id;sensor_type;location;lat;lon;timestamp;pressure;altitude;pressure_sealevel;temperature;humidity
20942;BME280;10630;53.734;10.282;2023-02-16T00:01:34;101836.13;;;8.52;73.51
20942;BME280;10630;53.734;10.282;2023-02-16T00:04:07;101833.13;;;8.57;73.35
20942;BME280;10630;53.734;10.282;2023-02-16T00:06:41;101837.53;;;8.12;74.94
20942;BME280;10630;53.734;10.282;2023-02-16T00:09:11;101837.28;;;8.27;75.72
20942;BME280;10630;53.734;10.282;2023-02-16T00:11:39;101838.00;;;8.17;75.69
20942;BME280;10630;53.734;10.282;2023-02-16T00:14:28;101839.94;;;8.27;75.65
20942;BME280;10630;53.734;10.282;2023-02-16T00:16:57;101827.75;;;8.24;76.47
20942;BME280;10630;53.734;10.282;2023-02-16T00:19:34;101818.75;;;8.04;76.76
20942;BME280;10630;53.734;10.282;2023-02-16T00:22:01;101828.72;;;8.34;77.12
20942;BME280;10630;53.734;10.282;2023-02-16T00:24:32;101825.72;;;8.16;77.42
20942;BME280;10630;53.734;10.282;2023-02-16T00:27:01;101830.81;;;7.97;78.89
20942;BME280;10630;53.734;10.282;2023-02-16T00:29:29;101829.47;;;8.14;78.85
20942;BME280;10630;53.734;10.282;2023-02-16T00:31:57;101824.28;;;8.23;79.11
20942;BME280;10630;53.734;10.282;2023-02-16T00:37:02;101818.16;;;8.55;77.26
20942;BME280;10630;53.734;10.282;2023-02-16T00:39:29;101814.38;;;8.26;77.01
20942;BME280;10630;53.734;10.282;2023-02-16T00:41:58;101815.75;;;8.41;77.06
20942;BME280;10630;53.734;10.282;2023-02-16T00:44:29;101817.19;;;8.57;76.32
20942;BME280;10630;53.734;10.282;2023-02-16T00:47:02;101813.22;;;8.51;76.22
20942;BME280;10630;53.734;10.282;2023-02-16T00:49:30;101819.00;;;8.45;77.26
20942;BME280;10630;53.734;10.282;2023-02-16T00:51:57;101824.44;;;8.43;76.59
20942;BME280;10630;53.734;10.282;2023-02-16T00:54:26;101806.84;;;8.53;76.77
20942;BME280;10630;53.734;10.282;2023-02-16T00:56:56;101819.66;;;8.26;77.03
20942;BME280;10630;53.734;10.282;2023-02-16T00:59:25;101820.25;;;8.29;76.43
20942;BME280;10630;53.734;10.282;2023-02-16T01:01:53;101811.06;;;8.56;76.49
20942;BME280;10630;53.734;10.282;2023-02-16T01:04:23;101809.31;;;8.22;77.41
20942;BME280;10630;53.734;10.282;2023-02-16T01:06:50;101816.28;;;8.35;77.89
20942;BME280;10630;53.734;10.282;2023-02-16T01:09:37;101807.16;;;8.60;76.93
20942;BME280;10630;53.734;10.282;2023-02-16T01:12:40;101802.97;;;8.58;75.91
20942;BME280;10630;53.734;10.282;2023-02-16T01:15:13;101814.44;;;8.58;75.58
20942;BME280;10630;53.734;10.282;2023-02-16T01:17:41;101809.88;;;8.70;74.47
20942;BME280;10630;53.734;10.282;2023-02-16T01:20:18;101810.97;;;8.35;75.20
20942;BME280;10630;53.734;10.282;2023-02-16T01:22:46;101801.59;;;8.31;75.70
20942;BME280;10630;53.734;10.282;2023-02-16T01:25:14;101805.84;;;8.54;74.94
20942;BME280;10630;53.734;10.282;2023-02-16T01:27:42;101799.00;;;8.52;75.00
20942;BME280;10630;53.734;10.282;2023-02-16T01:30:13;101792.91;;;8.29;75.16
20942;BME280;10630;53.734;10.282;2023-02-16T01:32:40;101794.09;;;8.36;75.52
20942;BME280;10630;53.734;10.282;2023-02-16T01:35:08;101783.03;;;8.31;75.13
20942;BME280;10630;53.734;10.282;2023-02-16T01:37:37;101785.03;;;8.38;75.36
20942;BME280;10630;53.734;10.282;2023-02-16T01:40:14;101777.78;;;8.40;74.66
20942;BME280;10630;53.734;10.282;2023-02-16T01:42:52;101767.94;;;8.31;74.39
20942;BME280;10630;53.734;10.282;2023-02-16T01:45:39;101772.88;;;8.36;74.86
20942;BME280;10630;53.734;10.282;2023-02-16T01:48:12;101769.16;;;8.27;74.82
20942;BME280;10630;53.734;10.282;2023-02-16T01:50:48;101769.22;;;8.04;75.95
20942;BME280;10630;53.734;10.282;2023-02-16T01:53:27;101772.66;;;8.16;76.54
20942;BME280;10630;53.734;10.282;2023-02-16T01:55:57;101768.31;;;8.27;75.88
20942;BME280;10630;53.734;10.282;2023-02-16T01:58:30;101764.13;;;8.13;77.03
20942;BME280;10630;53.734;10.282;2023-02-16T02:03:32;101769.13;;;7.95;78.51
20942;BME280;10630;53.734;10.282;2023-02-16T02:06:22;101765.88;;;8.35;78.57
20942;BME280;10630;53.734;10.282;2023-02-16T02:09:05;101773.97;;;8.33;77.38
20942;BME280;10630;53.734;10.282;2023-02-16T02:14:29;101774.72;;;8.24;77.41
20942;BME280;10630;53.734;10.282;2023-02-16T02:16:58;101775.50;;;8.47;77.64
20942;BME280;10630;53.734;10.282;2023-02-16T02:19:27;101772.19;;;8.22;78.77
20942;BME280;10630;53.734;10.282;2023-02-16T02:22:10;101774.56;;;8.26;78.64
20942;BME280;10630;53.734;10.282;2023-02-16T02:25:13;101776.72;;;8.32;77.51
20942;BME280;10630;53.734;10.282;2023-02-16T02:27:52;101781.63;;;8.15;79.27
20942;BME280;10630;53.734;10.282;2023-02-16T02:43:42;101755.63;;;8.63;78.41
20942;BME280;10630;53.734;10.282;2023-02-16T02:48:43;101758.13;;;8.43;77.72
20942;BME280;10630;53.734;10.282;2023-02-16T02:51:11;101757.03;;;8.46;78.15
20942;BME280;10630;53.734;10.282;2023-02-16T03:03:23;101752.59;;;8.35;79.15
20942;BME280;10630;53.734;10.282;2023-02-16T03:05:54;101744.13;;;8.41;78.95
20942;BME280;10630;53.734;10.282;2023-02-16T03:08:24;101746.50;;;8.55;78.10
20942;BME280;10630;53.734;10.282;2023-02-16T03:10:54;101739.25;;;8.58;78.22
20942;BME280;10630;53.734;10.282;2023-02-16T03:13:42;101734.16;;;8.66;79.03
20942;BME280;10630;53.734;10.282;2023-02-16T03:16:12;101730.84;;;8.52;77.90
20942;BME280;10630;53.734;10.282;2023-02-16T03:18:41;101725.28;;;8.55;78.10
20942;BME280;10630;53.734;10.282;2023-02-16T03:21:30;101739.78;;;8.19;78.17
20942;BME280;10630;53.734;10.282;2023-02-16T03:24:20;101739.78;;;8.51;78.84
20942;BME280;10630;53.734;10.282;2023-02-16T03:27:08;101749.50;;;8.30;78.66
20942;BME280;10630;53.734;10.282;2023-02-16T03:29:58;101735.88;;;8.55;79.88
20942;BME280;10630;53.734;10.282;2023-02-16T03:32:26;101739.84;;;8.61;78.67
20942;BME280;10630;53.734;10.282;2023-02-16T03:34:54;101743.69;;;8.36;79.44
20942;BME280;10630;53.734;10.282;2023-02-16T03:37:21;101740.81;;;8.28;80.01
20942;BME280;10630;53.734;10.282;2023-02-16T03:39:53;101746.03;;;8.62;78.82
20942;BME280;10630;53.734;10.282;2023-02-16T03:42:46;101749.13;;;8.67;77.01
20942;BME280;10630;53.734;10.282;2023-02-16T03:45:19;101737.97;;;8.73;76.65
20942;BME280;10630;53.734;10.282;2023-02-16T03:47:47;101737.44;;;8.79;75.17
20942;BME280;10630;53.734;10.282;2023-02-16T03:50:14;101738.69;;;8.75;76.01
20942;BME280;10630;53.734;10.282;2023-02-16T03:52:41;101731.50;;;8.66;75.57
20942;BME280;10630;53.734;10.282;2023-02-16T03:55:08;101722.00;;;8.63;75.10
20942;BME280;10630;53.734;10.282;2023-02-16T03:57:36;101722.28;;;8.70;75.79
20942;BME280;10630;53.734;10.282;2023-02-16T04:00:05;101720.69;;;8.58;75.89
20942;BME280;10630;53.734;10.282;2023-02-16T04:02:33;101714.41;;;8.59;75.21
20942;BME280;10630;53.734;10.282;2023-02-16T04:05:00;101715.91;;;8.40;75.19
20942;BME280;10630;53.734;10.282;2023-02-16T04:07:28;101713.63;;;8.47;75.02
20942;BME280;10630;53.734;10.282;2023-02-16T04:09:57;101707.47;;;8.46;75.56
20942;BME280;10630;53.734;10.282;2023-02-16T04:12:25;101711.56;;;8.50;74.53
20942;BME280;10630;53.734;10.282;2023-02-16T04:15:08;101705.47;;;8.60;73.95
20942;BME280;10630;53.734;10.282;2023-02-16T04:17:36;101711.19;;;8.76;73.34
20942;BME280;10630;53.734;10.282;2023-02-16T04:20:09;101706.31;;;8.60;72.74
20942;BME280;10630;53.734;10.282;2023-02-16T04:22:36;101704.56;;;8.49;74.02
20942;BME280;10630;53.734;10.282;2023-02-16T04:25:03;101703.75;;;8.49;73.69
20942;BME280;10630;53.734;10.282;2023-02-16T04:27:30;101706.03;;;8.42;74.86
20942;BME280;10630;53.734;10.282;2023-02-16T04:29:57;101706.50;;;8.47;74.44
20942;BME280;10630;53.734;10.282;2023-02-16T04:32:27;101705.75;;;8.24;75.24
20942;BME280;10630;53.734;10.282;2023-02-16T04:34:54;101712.16;;;8.21;76.28
20942;BME280;10630;53.734;10.282;2023-02-16T04:37:21;101717.19;;;8.24;76.41
20942;BME280;10630;53.734;10.282;2023-02-16T04:39:47;101699.50;;;8.46;75.71
20942;BME280;10630;53.734;10.282;2023-02-16T04:42:15;101712.41;;;8.18;77.01
20942;BME280;10630;53.734;10.282;2023-02-16T04:44:42;101712.41;;;8.18;76.59
20942;BME280;10630;53.734;10.282;2023-02-16T04:47:09;101698.25;;;8.29;76.29
20942;BME280;10630;53.734;10.282;2023-02-16T04:49:37;101697.94;;;8.22;76.59
20942;BME280;10630;53.734;10.282;2023-02-16T04:52:06;101693.69;;;7.87;77.62
20942;BME280;10630;53.734;10.282;2023-02-16T04:54:34;101700.97;;;7.85;78.87
20942;BME280;10630;53.734;10.282;2023-02-16T04:57:01;101692.44;;;8.03;79.42
20942;BME280;10630;53.734;10.282;2023-02-16T04:59:31;101690.75;;;8.02;79.16
20942;BME280;10630;53.734;10.282;2023-02-16T05:02:02;101690.19;;;8.31;78.62
20942;BME280;10630;53.734;10.282;2023-02-16T05:04:30;101687.97;;;8.36;77.25
20942;BME280;10630;53.734;10.282;2023-02-16T05:06:59;101689.56;;;8.06;78.49
20942;BME280;10630;53.734;10.282;2023-02-16T05:09:28;101691.03;;;7.99;78.53
20942;BME280;10630;53.734;10.282;2023-02-16T05:11:59;101688.72;;;8.27;77.94
20942;BME280;10630;53.734;10.282;2023-02-16T05:14:50;101695.97;;;7.92;78.28
20942;BME280;10630;53.734;10.282;2023-02-16T05:17:21;101699.84;;;8.20;78.49
20942;BME280;10630;53.734;10.282;2023-02-16T05:19:58;101690.41;;;8.28;77.91
20942;BME280;10630;53.734;10.282;2023-02-16T05:22:27;101693.81;;;8.30;77.88
20942;BME280;10630;53.734;10.282;2023-02-16T05:24:57;101698.03;;;8.00;78.65
20942;BME280;10630;53.734;10.282;2023-02-16T05:27:26;101693.03;;;8.39;77.96
20942;BME280;10630;53.734;10.282;2023-02-16T05:29:54;101699.00;;;8.20;77.68
20942;BME280;10630;53.734;10.282;2023-02-16T05:32:23;101684.66;;;8.44;76.62
20942;BME280;10630;53.734;10.282;2023-02-16T05:34:53;101693.59;;;8.21;77.41
20942;BME280;10630;53.734;10.282;2023-02-16T05:37:21;101701.13;;;8.05;79.08
20942;BME280;10630;53.734;10.282;2023-02-16T05:39:48;101698.59;;;8.36;78.17
20942;BME280;10630;53.734;10.282;2023-02-16T05:42:22;101704.44;;;8.18;77.51
20942;BME280;10630;53.734;10.282;2023-02-16T05:44:49;101702.06;;;8.48;76.85
20942;BME280;10630;53.734;10.282;2023-02-16T05:47:16;101705.38;;;8.29;76.75
20942;BME280;10630;53.734;10.282;2023-02-16T05:49:44;101699.47;;;8.25;77.69
20942;BME280;10630;53.734;10.282;2023-02-16T05:52:11;101704.28;;;7.99;77.19
20942;BME280;10630;53.734;10.282;2023-02-16T05:54:49;101702.72;;;8.29;78.71
20942;BME280;10630;53.734;10.282;2023-02-16T05:57:19;101712.16;;;8.21;77.59
20942;BME280;10630;53.734;10.282;2023-02-16T05:59:48;101710.91;;;8.26;78.05
20942;BME280;10630;53.734;10.282;2023-02-16T06:02:15;101711.22;;;8.11;77.87
20942;BME280;10630;53.734;10.282;2023-02-16T06:04:46;101704.50;;;8.28;77.63
20942;BME280;10630;53.734;10.282;2023-02-16T06:07:16;101694.09;;;8.15;77.90
20942;BME280;10630;53.734;10.282;2023-02-16T06:09:43;101696.97;;;8.23;78.30
20942;BME280;10630;53.734;10.282;2023-02-16T06:12:12;101698.63;;;8.24;78.49
20942;BME280;10630;53.734;10.282;2023-02-16T06:14:39;101694.97;;;8.37;77.70
20942;BME280;10630;53.734;10.282;2023-02-16T06:17:07;101691.22;;;8.39;76.67
20942;BME280;10630;53.734;10.282;2023-02-16T06:19:34;101693.03;;;8.39;76.52
20942;BME280;10630;53.734;10.282;2023-02-16T06:22:05;101698.00;;;8.32;75.91
20942;BME280;10630;53.734;10.282;2023-02-16T06:24:32;101707.47;;;8.67;75.71
20942;BME280;10630;53.734;10.282;2023-02-16T06:27:00;101697.81;;;8.45;75.98
20942;BME280;10630;53.734;10.282;2023-02-16T06:29:28;101699.13;;;8.51;75.49
20942;BME280;10630;53.734;10.282;2023-02-16T06:31:56;101698.19;;;8.40;76.52
20942;BME280;10630;53.734;10.282;2023-02-16T06:34:25;101702.13;;;8.25;76.05
20942;BME280;10630;53.734;10.282;2023-02-16T06:36:52;101697.34;;;8.51;76.38
20942;BME280;10630;53.734;10.282;2023-02-16T06:39:20;101693.72;;;8.41;76.90
20942;BME280;10630;53.734;10.282;2023-02-16T06:41:46;101690.88;;;8.33;77.21
20942;BME280;10630;53.734;10.282;2023-02-16T06:44:16;101684.06;;;8.51;76.86
20942;BME280;10630;53.734;10.282;2023-02-16T06:46:45;101685.78;;;8.83;75.74
20942;BME280;10630;53.734;10.282;2023-02-16T06:49:13;101697.13;;;8.64;76.12
20942;BME280;10630;53.734;10.282;2023-02-16T06:51:42;101702.16;;;8.67;76.02
20942;BME280;10630;53.734;10.282;2023-02-16T06:54:10;101698.34;;;8.39;77.40
20942;BME280;10630;53.734;10.282;2023-02-16T06:56:38;101690.38;;;8.39;78.00
20942;BME280;10630;53.734;10.282;2023-02-16T06:59:07;101686.44;;;8.54;77.70
20942;BME280;10630;53.734;10.282;2023-02-16T07:01:36;101686.03;;;8.80;77.11
20942;BME280;10630;53.734;10.282;2023-02-16T07:04:04;101689.63;;;8.69;76.95
20942;BME280;10630;53.734;10.282;2023-02-16T07:06:31;101686.09;;;8.90;76.76
20942;BME280;10630;53.734;10.282;2023-02-16T07:08:58;101683.00;;;8.64;76.41
20942;BME280;10630;53.734;10.282;2023-02-16T07:11:25;101685.94;;;8.61;77.95
20942;BME280;10630;53.734;10.282;2023-02-16T07:13:52;101683.47;;;8.69;77.97
20942;BME280;10630;53.734;10.282;2023-02-16T07:16:19;101673.94;;;8.87;77.15
20942;BME280;10630;53.734;10.282;2023-02-16T07:18:48;101693.56;;;8.75;77.35
20942;BME280;10630;53.734;10.282;2023-02-16T07:21:16;101679.81;;;8.70;78.22
20942;BME280;10630;53.734;10.282;2023-02-16T07:23:42;101695.31;;;8.65;79.55
20942;BME280;10630;53.734;10.282;2023-02-16T07:26:11;101677.53;;;8.86;78.67
20942;BME280;10630;53.734;10.282;2023-02-16T07:28:38;101687.94;;;8.68;78.86
20942;BME280;10630;53.734;10.282;2023-02-16T07:31:10;101685.91;;;9.13;77.98
20942;BME280;10630;53.734;10.282;2023-02-16T07:33:38;101685.88;;;9.03;77.05
20942;BME280;10630;53.734;10.282;2023-02-16T07:36:07;101688.34;;;9.26;77.10
20942;BME280;10630;53.734;10.282;2023-02-16T07:38:34;101688.38;;;9.35;76.06
20942;BME280;10630;53.734;10.282;2023-02-16T07:41:01;101700.28;;;9.51;76.49
20942;BME280;10630;53.734;10.282;2023-02-16T07:43:34;101698.44;;;9.92;74.66
20942;BME280;10630;53.734;10.282;2023-02-16T07:46:02;101700.09;;;9.84;74.43
20942;BME280;10630;53.734;10.282;2023-02-16T07:48:30;101699.84;;;10.06;73.47
20942;BME280;10630;53.734;10.282;2023-02-16T07:50:57;101704.16;;;9.88;73.85
20942;BME280;10630;53.734;10.282;2023-02-16T07:53:24;101699.41;;;9.81;74.49
20942;BME280;10630;53.734;10.282;2023-02-16T07:55:51;101685.13;;;10.02;75.06
20942;BME280;10630;53.734;10.282;2023-02-16T07:58:18;101681.91;;;9.98;74.29
20942;BME280;10630;53.734;10.282;2023-02-16T08:00:55;101680.22;;;10.47;73.57
20942;BME280;10630;53.734;10.282;2023-02-16T08:03:22;101678.81;;;10.52;73.08
20942;BME280;10630;53.734;10.282;2023-02-16T08:05:50;101679.09;;;10.59;72.93
20942;BME280;10630;53.734;10.282;2023-02-16T08:08:18;101680.53;;;10.43;72.91
20942;BME280;10630;53.734;10.282;2023-02-16T08:10:45;101689.31;;;10.64;72.59
20942;BME280;10630;53.734;10.282;2023-02-16T08:13:13;101682.72;;;10.68;72.13
20942;BME280;10630;53.734;10.282;2023-02-16T08:15:42;101695.00;;;10.79;72.45
20942;BME280;10630;53.734;10.282;2023-02-16T08:18:10;101691.97;;;10.54;72.90
20942;BME280;10630;53.734;10.282;2023-02-16T08:20:36;101698.03;;;10.26;73.27
20942;BME280;10630;53.734;10.282;2023-02-16T08:23:23;101705.19;;;10.45;73.30
20942;BME280;10630;53.734;10.282;2023-02-16T08:25:50;101700.09;;;10.62;73.87
20942;BME280;10630;53.734;10.282;2023-02-16T08:28:17;101689.16;;;10.65;73.63
20942;BME280;10630;53.734;10.282;2023-02-16T08:30:44;101687.31;;;11.13;71.94
20942;BME280;10630;53.734;10.282;2023-02-16T08:33:12;101684.31;;;10.98;71.61
20942;BME280;10630;53.734;10.282;2023-02-16T08:35:39;101684.31;;;10.98;72.14
20942;BME280;10630;53.734;10.282;2023-02-16T08:38:06;101696.44;;;10.83;72.29
20942;BME280;10630;53.734;10.282;2023-02-16T08:40:34;101689.88;;;11.15;71.91
20942;BME280;10630;53.734;10.282;2023-02-16T08:43:00;101683.78;;;10.85;70.90
20942;BME280;10630;53.734;10.282;2023-02-16T08:45:27;101687.00;;;11.26;71.50
20942;BME280;10630;53.734;10.282;2023-02-16T08:47:55;101691.53;;;11.16;72.03
20942;BME280;10630;53.734;10.282;2023-02-16T08:50:23;101683.41;;;11.17;71.85
20942;BME280;10630;53.734;10.282;2023-02-16T08:52:50;101680.91;;;11.06;72.13
20942;BME280;10630;53.734;10.282;2023-02-16T08:55:17;101676.78;;;11.21;71.69
20942;BME280;10630;53.734;10.282;2023-02-16T08:57:47;101677.06;;;11.46;71.29
20942;BME280;10630;53.734;10.282;2023-02-16T09:00:14;101681.63;;;11.36;71.83
20942;BME280;10630;53.734;10.282;2023-02-16T09:02:59;101685.25;;;11.35;71.64
20942;BME280;10630;53.734;10.282;2023-02-16T09:05:26;101682.66;;;11.53;70.40
20942;BME280;10630;53.734;10.282;2023-02-16T09:07:56;101674.34;;;11.56;70.89
20942;BME280;10630;53.734;10.282;2023-02-16T09:10:23;101668.03;;;11.57;71.62
20942;BME280;10630;53.734;10.282;2023-02-16T09:12:51;101677.72;;;11.94;70.48
20942;BME280;10630;53.734;10.282;2023-02-16T09:15:18;101680.59;;;12.11;68.58
20942;BME280;10630;53.734;10.282;2023-02-16T09:17:46;101691.25;;;12.11;68.86
20942;BME280;10630;53.734;10.282;2023-02-16T09:20:13;101691.56;;;12.08;68.46
20942;BME280;10630;53.734;10.282;2023-02-16T09:22:44;101697.38;;;11.93;69.90
20942;BME280;10630;53.734;10.282;2023-02-16T09:25:12;101697.47;;;12.38;68.53
20942;BME280;10630;53.734;10.282;2023-02-16T09:27:41;101694.16;;;12.62;68.63
20942;BME280;10630;53.734;10.282;2023-02-16T09:30:08;101693.31;;;12.17;67.97
20942;BME280;10630;53.734;10.282;2023-02-16T09:32:35;101699.22;;;12.73;69.08
20942;BME280;10630;53.734;10.282;2023-02-16T09:35:02;101702.81;;;12.38;68.83
20942;BME280;10630;53.734;10.282;2023-02-16T09:37:31;101695.41;;;12.76;67.53
20942;BME280;10630;53.734;10.282;2023-02-16T09:39:58;101698.13;;;12.13;68.03
20942;BME280;10630;53.734;10.282;2023-02-16T09:42:34;101694.69;;;12.03;69.07
20942;BME280;10630;53.734;10.282;2023-02-16T09:45:08;101707.09;;;12.75;67.25
20942;BME280;10630;53.734;10.282;2023-02-16T09:47:37;101693.88;;;12.99;64.04
20942;BME280;10630;53.734;10.282;2023-02-16T09:50:17;101705.06;;;12.95;66.04
20942;BME280;10630;53.734;10.282;2023-02-16T09:53:07;101705.78;;;12.79;65.64
20942;BME280;10630;53.734;10.282;2023-02-16T09:55:44;101701.31;;;12.61;66.13
20942;BME280;10630;53.734;10.282;2023-02-16T09:58:18;101708.22;;;12.46;67.87
20942;BME280;10630;53.734;10.282;2023-02-16T10:00:50;101699.47;;;13.14;65.83
20942;BME280;10630;53.734;10.282;2023-02-16T10:08:31;101706.13;;;12.84;64.54
20942;BME280;10630;53.734;10.282;2023-02-16T10:13:57;101715.53;;;12.62;65.39
20942;BME280;10630;53.734;10.282;2023-02-16T10:16:30;101720.94;;;12.96;65.83
20942;BME280;10630;53.734;10.282;2023-02-16T10:18:57;101712.94;;;13.74;63.58
20942;BME280;10630;53.734;10.282;2023-02-16T10:21:27;101729.25;;;12.93;64.82
20942;BME280;10630;53.734;10.282;2023-02-16T10:23:57;101718.72;;;12.92;65.12
20942;BME280;10630;53.734;10.282;2023-02-16T10:26:36;101710.38;;;13.64;64.86
20942;BME280;10630;53.734;10.282;2023-02-16T10:29:12;101711.53;;;13.61;63.97
20942;BME280;10630;53.734;10.282;2023-02-16T10:31:42;101697.16;;;13.63;64.30
20942;BME280;10630;53.734;10.282;2023-02-16T10:34:21;101708.56;;;13.30;65.27
20942;BME280;10630;53.734;10.282;2023-02-16T10:42:24;101704.84;;;12.88;67.56
20942;BME280;10630;53.734;10.282;2023-02-16T10:45:19;101706.03;;;12.41;70.11
20942;BME280;10630;53.734;10.282;2023-02-16T10:47:42;101703.84;;;12.63;69.65
20942;BME280;10630;53.734;10.282;2023-02-16T10:50:30;101716.97;;;12.56;69.35
20942;BME280;10630;53.734;10.282;2023-02-16T10:52:59;101716.69;;;12.86;69.42
20942;BME280;10630;53.734;10.282;2023-02-16T10:55:27;101713.13;;;12.32;70.38
20942;BME280;10630;53.734;10.282;2023-02-16T10:57:57;101714.56;;;12.09;71.16
20942;BME280;10630;53.734;10.282;2023-02-16T11:00:28;101699.41;;;12.72;70.02
20942;BME280;10630;53.734;10.282;2023-02-16T11:03:00;101715.34;;;12.01;72.20
20942;BME280;10630;53.734;10.282;2023-02-16T11:05:30;101702.09;;;13.06;69.74
20942;BME280;10630;53.734;10.282;2023-02-16T11:07:58;101706.22;;;13.35;67.39
20942;BME280;10630;53.734;10.282;2023-02-16T11:10:39;101703.44;;;13.45;67.58
20942;BME280;10630;53.734;10.282;2023-02-16T11:13:07;101715.53;;;12.88;68.82
20942;BME280;10630;53.734;10.282;2023-02-16T11:15:44;101706.56;;;13.32;68.79
20942;BME280;10630;53.734;10.282;2023-02-16T11:18:27;101712.03;;;13.22;68.05
20942;BME280;10630;53.734;10.282;2023-02-16T11:20:54;101719.50;;;12.84;66.66
20942;BME280;10630;53.734;10.282;2023-02-16T11:23:26;101704.59;;;13.08;70.30
20942;BME280;10630;53.734;10.282;2023-02-16T11:25:55;101708.22;;;13.59;67.89
20942;BME280;10630;53.734;10.282;2023-02-16T11:28:31;101707.41;;;13.75;67.37
20942;BME280;10630;53.734;10.282;2023-02-16T11:33:58;101699.03;;;13.27;68.52
20942;BME280;10630;53.734;10.282;2023-02-16T11:36:47;101696.84;;;13.66;66.33
20942;BME280;10630;53.734;10.282;2023-02-16T11:41:43;101688.16;;;13.64;67.78
20942;BME280;10630;53.734;10.282;2023-02-16T11:44:23;101691.19;;;13.77;66.44
20942;BME280;10630;53.734;10.282;2023-02-16T11:46:53;101688.50;;;13.77;67.18
20942;BME280;10630;53.734;10.282;2023-02-16T11:49:27;101689.56;;;14.42;65.54
20942;BME280;10630;53.734;10.282;2023-02-16T11:51:57;101695.97;;;13.57;65.83
20942;BME280;10630;53.734;10.282;2023-02-16T11:54:24;101690.91;;;14.05;66.78
20942;BME280;10630;53.734;10.282;2023-02-16T11:57:02;101693.81;;;13.60;66.48
20942;BME280;10630;53.734;10.282;2023-02-16T11:59:31;101697.91;;;14.31;65.88
20942;BME280;10630;53.734;10.282;2023-02-16T12:09:55;101684.63;;;13.55;66.43
20942;BME280;10630;53.734;10.282;2023-02-16T12:12:32;101686.66;;;13.26;69.45
20942;BME280;10630;53.734;10.282;2023-02-16T12:15:15;101683.50;;;13.82;65.20
20942;BME280;10630;53.734;10.282;2023-02-16T12:17:55;101676.06;;;13.08;66.59
20942;BME280;10630;53.734;10.282;2023-02-16T12:23:21;101666.31;;;14.01;67.42
20942;BME280;10630;53.734;10.282;2023-02-16T12:31:39;101670.50;;;14.29;65.30
20942;BME280;10630;53.734;10.282;2023-02-16T12:44:56;101667.47;;;14.23;67.01
20942;BME280;10630;53.734;10.282;2023-02-16T12:47:27;101657.06;;;14.45;65.90
20942;BME280;10630;53.734;10.282;2023-02-16T12:49:56;101663.28;;;14.21;65.71
20942;BME280;10630;53.734;10.282;2023-02-16T12:52:28;101649.38;;;13.92;65.74
20942;BME280;10630;53.734;10.282;2023-02-16T12:58:00;101643.88;;;13.77;67.52
20942;BME280;10630;53.734;10.282;2023-02-16T13:00:43;101650.72;;;13.80;65.55
20942;BME280;10630;53.734;10.282;2023-02-16T13:14:02;101642.53;;;14.31;66.38
20942;BME280;10630;53.734;10.282;2023-02-16T13:16:52;101651.72;;;13.28;66.57
20942;BME280;10630;53.734;10.282;2023-02-16T13:19:22;101651.06;;;13.93;67.20
20942;BME280;10630;53.734;10.282;2023-02-16T13:27:14;101635.31;;;14.40;67.84
20942;BME280;10630;53.734;10.282;2023-02-16T13:29:47;101621.97;;;13.82;69.50
20942;BME280;10630;53.734;10.282;2023-02-16T13:32:31;101615.09;;;14.21;68.39
20942;BME280;10630;53.734;10.282;2023-02-16T13:46:06;101615.88;;;14.46;69.51
20942;BME280;10630;53.734;10.282;2023-02-16T13:48:46;101615.91;;;14.38;71.50
20942;BME280;10630;53.734;10.282;2023-02-16T13:51:26;101620.63;;;13.95;72.85
20942;BME280;10630;53.734;10.282;2023-02-16T13:53:56;101609.75;;;13.96;73.76
20942;BME280;10630;53.734;10.282;2023-02-16T13:58:52;101615.19;;;14.52;71.26
20942;BME280;10630;53.734;10.282;2023-02-16T14:01:35;101610.53;;;14.38;70.98
20942;BME280;10630;53.734;10.282;2023-02-16T14:04:09;101609.41;;;13.91;72.78
20942;BME280;10630;53.734;10.282;2023-02-16T14:06:40;101614.28;;;14.04;72.41
20942;BME280;10630;53.734;10.282;2023-02-16T14:17:15;101623.97;;;14.05;72.14
20942;BME280;10630;53.734;10.282;2023-02-16T14:22:36;101615.59;;;14.33;70.43
20942;BME280;10630;53.734;10.282;2023-02-16T14:30:50;101595.19;;;14.15;74.00
20942;BME280;10630;53.734;10.282;2023-02-16T14:33:22;101598.31;;;14.44;72.60
20942;BME280;10630;53.734;10.282;2023-02-16T14:38:28;101587.84;;;14.01;74.51
20942;BME280;10630;53.734;10.282;2023-02-16T14:41:05;101589.00;;;13.98;74.54
20942;BME280;10630;53.734;10.282;2023-02-16T14:43:38;101586.63;;;14.36;73.21
20942;BME280;10630;53.734;10.282;2023-02-16T14:54:27;101589.56;;;14.58;70.65
20942;BME280;10630;53.734;10.282;2023-02-16T14:56:58;101590.47;;;14.42;71.87
20942;BME280;10630;53.734;10.282;2023-02-16T15:02:23;101595.97;;;15.05;69.67
20942;BME280;10630;53.734;10.282;2023-02-16T15:04:52;101586.84;;;15.69;64.62
20942;BME280;10630;53.734;10.282;2023-02-16T15:07:19;101573.72;;;15.51;65.29
20942;BME280;10630;53.734;10.282;2023-02-16T15:09:48;101587.66;;;15.46;64.63
20942;BME280;10630;53.734;10.282;2023-02-16T15:12:31;101577.97;;;15.69;64.58
20942;BME280;10630;53.734;10.282;2023-02-16T15:15:00;101587.28;;;15.26;66.12
20942;BME280;10630;53.734;10.282;2023-02-16T15:17:34;101582.53;;;15.13;66.91
20942;BME280;10630;53.734;10.282;2023-02-16T15:20:07;101579.88;;;15.05;66.58
20942;BME280;10630;53.734;10.282;2023-02-16T15:22:36;101582.53;;;15.13;67.95
20942;BME280;10630;53.734;10.282;2023-02-16T15:25:19;101582.09;;;14.37;68.49
20942;BME280;10630;53.734;10.282;2023-02-16T15:28:01;101582.25;;;15.00;69.00
20942;BME280;10630;53.734;10.282;2023-02-16T15:30:36;101580.53;;;15.39;67.30